createdAt,value
2022-09-20T00:00:43.161Z,13.00
2022-09-20T00:01:43.128Z,12.92
2022-09-20T00:02:43.070Z,12.92
2022-09-20T00:03:43.061Z,12.99
2022-09-20T00:04:43.103Z,13.00
2022-09-20T00:05:43.045Z,12.95
2022-09-20T00:06:43.079Z,12.75
2022-09-20T00:07:43.034Z,12.63
2022-09-20T00:08:43.025Z,12.78
2022-09-20T00:09:43.045Z,12.89
2022-09-20T00:10:43.023Z,12.89
2022-09-20T00:11:43.006Z,13.07
2022-09-20T00:12:43.014Z,13.17
2022-09-20T00:13:42.990Z,13.11
2022-09-20T00:14:42.991Z,13.12
2022-09-20T00:15:43.007Z,13.02
2022-09-20T00:16:43.070Z,13.03
2022-09-20T00:17:42.988Z,13.11
2022-09-20T00:18:42.966Z,13.00
2022-09-20T00:19:42.960Z,12.95
2022-09-20T00:20:42.984Z,12.93
2022-09-20T00:21:42.942Z,12.87
2022-09-20T00:22:42.937Z,13.04
2022-09-20T00:23:43.125Z,13.21
2022-09-20T00:24:48.166Z,13.32
2022-09-20T00:25:45.002Z,13.46
2022-09-20T00:26:42.934Z,13.54
2022-09-20T00:27:42.954Z,13.58
2022-09-20T00:28:42.937Z,13.67
2022-09-20T00:29:42.994Z,13.59
2022-09-20T00:30:42.902Z,13.51
2022-09-20T00:31:43.211Z,13.63
2022-09-20T00:32:42.881Z,13.58
2022-09-20T00:33:42.920Z,13.59
2022-09-20T00:34:42.858Z,13.55
2022-09-20T00:35:42.893Z,13.33
2022-09-20T00:36:42.884Z,13.22
2022-09-20T00:37:42.830Z,13.12
2022-09-20T00:38:42.850Z,13.11
2022-09-20T00:39:42.818Z,12.87
2022-09-20T00:40:42.951Z,12.84
2022-09-20T00:41:42.822Z,12.82
2022-09-20T00:42:42.798Z,12.79
2022-09-20T00:43:42.827Z,12.79
2022-09-20T00:44:42.832Z,12.67
2022-09-20T00:45:42.828Z,12.69
2022-09-20T00:46:42.779Z,12.78
2022-09-20T00:47:42.850Z,12.77
2022-09-20T00:48:42.774Z,12.84
2022-09-20T00:49:43.758Z,12.82
2022-09-20T00:50:42.778Z,12.87
2022-09-20T00:51:42.762Z,12.84
2022-09-20T00:52:42.741Z,12.89
2022-09-20T00:53:42.745Z,12.87
2022-09-20T00:54:42.743Z,12.89
2022-09-20T00:55:42.718Z,13.02
2022-09-20T00:56:42.733Z,13.04
2022-09-20T00:57:42.746Z,13.03
2022-09-20T00:58:42.710Z,13.12
2022-09-20T00:59:42.692Z,13.15
2022-09-20T01:00:42.797Z,13.21
2022-09-20T01:01:42.731Z,13.14
2022-09-20T01:02:42.757Z,13.11
2022-09-20T01:03:42.753Z,13.03
2022-09-20T01:04:42.643Z,13.18
2022-09-20T01:05:42.656Z,13.17
2022-09-20T01:06:42.621Z,13.22
2022-09-20T01:07:42.613Z,13.25
2022-09-20T01:08:42.661Z,13.22
2022-09-20T01:09:42.615Z,13.14
2022-09-20T01:10:42.602Z,13.06
2022-09-20T01:11:42.593Z,13.02
2022-09-20T01:12:42.569Z,12.93
2022-09-20T01:13:42.597Z,12.79
2022-09-20T01:14:42.554Z,12.87
2022-09-20T01:15:42.578Z,12.88
2022-09-20T01:16:42.589Z,12.95
2022-09-20T01:17:42.558Z,13.07
2022-09-20T01:18:42.542Z,12.96
2022-09-20T01:19:42.534Z,13.11
2022-09-20T01:20:42.521Z,13.09
2022-09-20T01:21:42.514Z,13.04
2022-09-20T01:22:42.541Z,13.04
2022-09-20T01:23:42.509Z,13.09
2022-09-20T01:24:42.489Z,13.12
2022-09-20T01:25:42.494Z,13.06
2022-09-20T01:26:42.495Z,12.99
2022-09-20T01:27:42.494Z,12.77
2022-09-20T01:28:42.461Z,12.82
2022-09-20T01:29:42.499Z,12.99
2022-09-20T01:30:42.460Z,12.95
2022-09-20T01:31:42.500Z,13.11
2022-09-20T01:32:42.480Z,13.11
2022-09-20T01:33:42.449Z,13.11
2022-09-20T01:34:42.437Z,13.09
2022-09-20T01:35:42.433Z,13.12
2022-09-20T01:36:42.418Z,13.14
2022-09-20T01:37:42.425Z,13.06
2022-09-20T01:38:42.441Z,13.03
2022-09-20T01:39:42.401Z,12.99
2022-09-20T01:40:42.440Z,13.12
2022-09-20T01:41:42.388Z,13.17
2022-09-20T01:42:42.408Z,13.11
2022-09-20T01:43:42.374Z,13.06
2022-09-20T01:44:42.362Z,13.11
2022-09-20T01:45:42.452Z,13.06
2022-09-20T01:46:42.351Z,12.95
2022-09-20T01:47:42.363Z,12.84
2022-09-20T01:48:42.351Z,12.82
2022-09-20T01:49:42.343Z,12.64
2022-09-20T01:50:42.343Z,12.69
2022-09-20T01:51:42.323Z,12.63
2022-09-20T01:52:42.306Z,12.57
2022-09-20T01:53:42.307Z,12.54
2022-09-20T01:54:42.307Z,12.69
2022-09-20T01:55:42.287Z,12.42
2022-09-20T01:56:42.284Z,12.59
2022-09-20T01:57:42.281Z,12.63
2022-09-20T01:58:42.307Z,12.75
2022-09-20T01:59:42.263Z,12.77
2022-09-20T02:00:42.297Z,12.75
2022-09-20T02:01:42.241Z,12.69
2022-09-20T02:03:15.754Z,12.77
2022-09-20T02:03:42.248Z,12.82
2022-09-20T02:04:42.238Z,12.79
2022-09-20T02:05:42.253Z,12.69
2022-09-20T02:06:43.270Z,12.63
2022-09-20T02:07:42.235Z,12.71
2022-09-20T02:08:42.257Z,12.77
2022-09-20T02:09:42.193Z,12.79
2022-09-20T02:10:42.185Z,12.78
2022-09-20T02:11:42.191Z,12.92
2022-09-20T02:12:42.193Z,12.87
2022-09-20T02:13:42.189Z,12.88
2022-09-20T02:14:42.157Z,12.89
2022-09-20T02:15:42.166Z,12.82
2022-09-20T02:16:42.224Z,12.79
2022-09-20T02:17:42.150Z,12.82
2022-09-20T02:18:42.131Z,12.79
2022-09-20T02:19:42.155Z,12.79
2022-09-20T02:20:42.125Z,12.67
2022-09-20T02:21:42.117Z,12.66
2022-09-20T02:22:42.156Z,12.51
2022-09-20T02:23:42.107Z,12.49
2022-09-20T02:24:42.114Z,12.48
2022-09-20T02:25:42.102Z,12.62
2022-09-20T02:26:42.115Z,12.52
2022-09-20T02:27:42.151Z,12.60
2022-09-20T02:28:42.093Z,12.54
2022-09-20T02:29:42.069Z,12.62
2022-09-20T02:30:42.082Z,12.54
2022-09-20T02:31:42.128Z,12.45
2022-09-20T02:32:42.053Z,12.46
2022-09-20T02:33:42.093Z,12.48
2022-09-20T02:34:42.035Z,12.45
2022-09-20T02:35:42.040Z,12.46
2022-09-20T02:36:42.006Z,12.51
2022-09-20T02:37:42.006Z,12.60
2022-09-20T02:38:42.258Z,12.59
2022-09-20T02:39:42.742Z,12.60
2022-09-20T02:40:42.104Z,12.63
2022-09-20T02:41:41.993Z,12.64
2022-09-20T02:42:41.995Z,12.62
2022-09-20T02:43:41.998Z,12.62
2022-09-20T02:44:41.966Z,12.49
2022-09-20T02:45:42.058Z,12.41
2022-09-20T02:46:41.949Z,12.26
2022-09-20T02:47:41.938Z,12.24
2022-09-20T02:48:42.038Z,12.27
2022-09-20T02:49:41.951Z,12.42
2022-09-20T02:50:41.929Z,12.48
2022-09-20T02:51:41.957Z,12.51
2022-09-20T02:52:41.930Z,12.57
2022-09-20T02:53:42.062Z,12.39
2022-09-20T02:54:41.914Z,12.41
2022-09-20T02:55:41.926Z,12.15
2022-09-20T02:56:41.906Z,12.06
2022-09-20T02:57:41.880Z,12.02
2022-09-20T02:58:41.865Z,11.96
2022-09-20T02:59:41.894Z,11.94
2022-09-20T03:00:41.869Z,12.01
2022-09-20T03:01:41.937Z,11.96
2022-09-20T03:02:41.957Z,11.97
2022-09-20T03:03:41.828Z,12.11
2022-09-20T03:04:41.832Z,12.16
2022-09-20T03:05:41.842Z,12.11
2022-09-20T03:06:41.882Z,12.44
2022-09-20T03:07:41.834Z,12.41
2022-09-20T03:08:41.805Z,12.27
2022-09-20T03:09:41.810Z,12.23
2022-09-20T03:10:41.810Z,12.20
2022-09-20T03:11:41.835Z,12.26
2022-09-20T03:12:41.788Z,12.42
2022-09-20T03:13:41.878Z,12.26
2022-09-20T03:14:41.774Z,12.34
2022-09-20T03:15:41.793Z,12.16
2022-09-20T03:16:41.833Z,12.23
2022-09-20T03:17:41.742Z,12.12
2022-09-20T03:18:41.741Z,12.20
2022-09-20T03:19:41.774Z,12.11
2022-09-20T03:20:41.733Z,11.99
2022-09-20T03:21:41.789Z,12.04
2022-09-20T03:22:41.741Z,12.11
2022-09-20T03:23:41.713Z,12.13
2022-09-20T03:24:41.706Z,12.15
2022-09-20T03:25:41.705Z,12.26
2022-09-20T03:26:41.710Z,12.24
2022-09-20T03:27:41.682Z,12.27
2022-09-20T03:28:41.693Z,12.21
2022-09-20T03:29:41.674Z,12.15
2022-09-20T03:30:41.738Z,12.02
2022-09-20T03:31:41.818Z,12.01
2022-09-20T03:32:41.709Z,12.04
2022-09-20T03:33:41.717Z,12.19
2022-09-20T03:34:41.673Z,12.21
2022-09-20T03:35:41.660Z,12.19
2022-09-20T03:36:42.357Z,12.29
2022-09-20T03:37:41.609Z,12.45
2022-09-20T03:38:41.604Z,12.41
2022-09-20T03:39:41.637Z,12.31
2022-09-20T03:40:46.223Z,12.23
2022-09-20T03:41:43.721Z,12.12
2022-09-20T03:42:41.615Z,12.21
2022-09-20T03:43:41.627Z,12.15
2022-09-20T03:44:41.579Z,12.13
2022-09-20T03:45:41.662Z,12.09
2022-09-20T03:46:41.794Z,12.04
2022-09-20T03:47:41.592Z,12.05
2022-09-20T03:48:41.576Z,12.08
2022-09-20T03:49:41.564Z,12.09
2022-09-20T03:50:41.544Z,11.96
2022-09-20T03:51:41.578Z,12.08
2022-09-20T03:52:41.677Z,12.06
2022-09-20T03:53:41.649Z,12.13
2022-09-20T03:54:41.577Z,12.21
2022-09-20T03:55:41.549Z,12.19
2022-09-20T03:56:41.597Z,12.21
2022-09-20T03:57:41.625Z,12.31
2022-09-20T03:58:41.533Z,12.41
2022-09-20T03:59:41.598Z,12.37
2022-09-20T04:00:41.546Z,12.49
2022-09-20T04:01:41.525Z,12.34
2022-09-20T04:02:41.607Z,12.41
2022-09-20T04:03:41.563Z,12.44
2022-09-20T04:04:41.490Z,12.31
2022-09-20T04:05:41.530Z,12.39
2022-09-20T04:06:41.450Z,12.41
2022-09-20T04:07:41.447Z,12.33
2022-09-20T04:08:41.442Z,12.41
2022-09-20T04:09:41.428Z,12.41
2022-09-20T04:10:41.406Z,12.44
2022-09-20T04:11:41.403Z,12.44
2022-09-20T04:12:41.405Z,12.52
2022-09-20T04:13:41.423Z,12.54
2022-09-20T04:14:41.446Z,12.48
2022-09-20T04:15:41.387Z,12.52
2022-09-20T04:16:41.502Z,12.33
2022-09-20T04:17:41.392Z,12.31
2022-09-20T04:18:41.425Z,12.37
2022-09-20T04:19:41.351Z,12.44
2022-09-20T04:20:41.600Z,12.24
2022-09-20T04:21:41.441Z,12.21
2022-09-20T04:22:41.358Z,12.45
2022-09-20T04:23:41.343Z,12.57
2022-09-20T04:24:41.329Z,12.56
2022-09-20T04:25:44.058Z,12.67
2022-09-20T04:26:42.292Z,12.75
2022-09-20T04:27:41.313Z,12.77
2022-09-20T04:28:41.333Z,12.85
2022-09-20T04:29:41.328Z,12.87
2022-09-20T04:30:41.312Z,12.85
2022-09-20T04:31:41.543Z,12.92
2022-09-20T04:32:41.312Z,12.85
2022-09-20T04:33:41.331Z,12.89
2022-09-20T04:34:42.263Z,13.03
2022-09-20T04:35:41.308Z,12.93
2022-09-20T04:36:41.332Z,13.00
2022-09-20T04:37:41.224Z,13.06
2022-09-20T04:38:41.240Z,12.95
2022-09-20T04:39:41.237Z,12.99
2022-09-20T04:40:41.257Z,13.04
2022-09-20T04:41:41.262Z,13.11
2022-09-20T04:42:41.191Z,13.17
2022-09-20T04:43:41.182Z,13.29
2022-09-20T04:44:41.198Z,13.22
2022-09-20T04:45:41.244Z,13.14
2022-09-20T04:46:41.857Z,13.20
2022-09-20T04:47:41.163Z,13.15
2022-09-20T04:48:41.166Z,13.30
2022-09-20T04:49:41.169Z,13.22
2022-09-20T04:50:41.225Z,13.29
2022-09-20T04:51:41.169Z,13.30
2022-09-20T04:52:41.146Z,13.29
2022-09-20T04:53:41.742Z,13.17
2022-09-20T04:54:41.901Z,13.30
2022-09-20T04:55:41.139Z,13.12
2022-09-20T04:56:41.101Z,13.15
2022-09-20T04:57:41.165Z,13.15
2022-09-20T04:58:41.285Z,13.15
2022-09-20T04:59:41.208Z,13.06
2022-09-20T05:00:41.454Z,13.00
2022-09-20T05:01:41.200Z,13.03
2022-09-20T05:02:41.380Z,13.12
2022-09-20T05:03:41.171Z,13.18
2022-09-20T05:04:41.039Z,13.27
2022-09-20T05:05:41.039Z,12.88
2022-09-20T05:06:41.043Z,12.88
2022-09-20T05:07:41.068Z,12.92
2022-09-20T05:08:41.043Z,13.07
2022-09-20T05:09:41.011Z,13.04
2022-09-20T05:10:41.011Z,13.00
2022-09-20T05:11:41.047Z,12.96
2022-09-20T05:12:40.991Z,12.81
2022-09-20T05:13:40.979Z,12.99
2022-09-20T05:14:40.976Z,12.82
2022-09-20T05:15:40.978Z,12.77
2022-09-20T05:16:43.375Z,12.79
2022-09-20T05:17:40.947Z,12.84
2022-09-20T05:18:40.972Z,12.81
2022-09-20T05:19:40.931Z,12.81
2022-09-20T05:20:40.948Z,12.77
2022-09-20T05:21:40.931Z,12.78
2022-09-20T05:22:40.934Z,12.77
2022-09-20T05:23:41.959Z,12.84
2022-09-20T05:24:40.914Z,12.87
2022-09-20T05:25:40.914Z,12.85
2022-09-20T05:26:40.948Z,12.95
2022-09-20T05:27:40.900Z,13.00
2022-09-20T05:28:40.926Z,13.02
2022-09-20T05:29:41.871Z,12.84
2022-09-20T05:30:40.897Z,13.04
2022-09-20T05:31:40.906Z,12.96
2022-09-20T05:32:40.879Z,13.00
2022-09-20T05:33:40.890Z,12.96
2022-09-20T05:34:40.847Z,12.84
2022-09-20T05:35:40.839Z,12.89
2022-09-20T05:36:40.827Z,12.87
2022-09-20T05:37:40.836Z,12.97
2022-09-20T05:38:40.870Z,12.87
2022-09-20T05:39:40.818Z,12.93
2022-09-20T05:40:40.799Z,13.15
2022-09-20T05:41:40.823Z,13.14
2022-09-20T05:42:40.803Z,13.14
2022-09-20T05:43:40.783Z,13.07
2022-09-20T05:44:40.781Z,13.15
2022-09-20T05:45:40.807Z,13.06
2022-09-20T05:46:40.763Z,13.21
2022-09-20T05:47:40.786Z,13.14
2022-09-20T05:48:40.751Z,13.09
2022-09-20T05:49:40.739Z,13.11
2022-09-20T05:50:40.746Z,13.30
2022-09-20T05:51:40.730Z,13.21
2022-09-20T05:52:40.726Z,13.32
2022-09-20T05:53:40.734Z,13.25
2022-09-20T05:54:40.712Z,13.37
2022-09-20T05:55:40.718Z,13.29
2022-09-20T05:56:40.713Z,13.32
2022-09-20T05:57:40.707Z,13.22
2022-09-20T05:58:40.702Z,13.20
2022-09-20T05:59:40.690Z,13.24
2022-09-20T06:00:40.670Z,13.20
2022-09-20T06:01:40.687Z,13.02
2022-09-20T06:02:40.708Z,12.99
2022-09-20T06:03:40.682Z,13.09
2022-09-20T06:04:40.643Z,13.14
2022-09-20T06:05:40.635Z,13.07
2022-09-20T06:06:40.675Z,13.09
2022-09-20T06:07:40.616Z,13.15
2022-09-20T06:08:40.628Z,13.11
2022-09-20T06:09:40.602Z,13.06
2022-09-20T06:10:40.594Z,12.78
2022-09-20T06:11:42.131Z,12.59
2022-09-20T06:12:40.626Z,12.54
2022-09-20T06:13:40.611Z,12.75
2022-09-20T06:14:40.574Z,12.85
2022-09-20T06:15:40.562Z,12.67
2022-09-20T06:16:40.609Z,12.62
2022-09-20T06:17:40.546Z,12.70
2022-09-20T06:18:40.547Z,12.79
2022-09-20T06:19:40.559Z,12.88
2022-09-20T06:20:40.524Z,12.96
2022-09-20T06:21:40.519Z,13.11
2022-09-20T06:22:40.518Z,13.14
2022-09-20T06:23:40.559Z,13.12
2022-09-20T06:24:40.531Z,13.03
2022-09-20T06:25:40.503Z,13.21
2022-09-20T06:26:40.491Z,12.93
2022-09-20T06:27:40.486Z,12.84
2022-09-20T06:28:40.506Z,12.87
2022-09-20T06:29:40.557Z,13.00
2022-09-20T06:30:41.540Z,13.09
2022-09-20T06:31:40.476Z,13.18
2022-09-20T06:32:40.466Z,13.22
2022-09-20T06:33:40.611Z,13.21
2022-09-20T06:34:40.462Z,13.30
2022-09-20T06:35:40.447Z,13.36
2022-09-20T06:36:40.486Z,13.33
2022-09-20T06:37:40.422Z,13.22
2022-09-20T06:38:40.415Z,13.22
2022-09-20T06:39:40.510Z,13.29
2022-09-20T06:40:41.343Z,13.32
2022-09-20T06:41:40.403Z,13.43
2022-09-20T06:42:40.470Z,13.32
2022-09-20T06:43:40.397Z,13.17
2022-09-20T06:44:40.383Z,12.81
2022-09-20T06:45:40.551Z,12.96
2022-09-20T06:46:40.371Z,13.15
2022-09-20T06:47:40.360Z,13.24
2022-09-20T06:48:40.351Z,13.33
2022-09-20T06:49:40.380Z,13.33
2022-09-20T06:50:40.350Z,13.40
2022-09-20T06:51:40.342Z,13.54
2022-09-20T06:52:40.468Z,13.54
2022-09-20T06:53:40.331Z,13.55
2022-09-20T06:54:40.338Z,13.56
2022-09-20T06:55:40.330Z,13.67
2022-09-20T06:56:40.322Z,13.61
2022-09-20T06:57:40.286Z,13.59
2022-09-20T06:58:40.270Z,13.67
2022-09-20T06:59:40.319Z,13.49
2022-09-20T07:00:40.257Z,13.62
2022-09-20T07:01:40.332Z,13.54
2022-09-20T07:02:40.322Z,13.47
2022-09-20T07:03:40.250Z,13.58
2022-09-20T07:04:40.249Z,13.27
2022-09-20T07:05:40.231Z,13.04
2022-09-20T07:06:40.231Z,13.03
2022-09-20T07:07:41.302Z,13.11
2022-09-20T07:08:40.216Z,13.12
2022-09-20T07:09:40.203Z,13.17
2022-09-20T07:10:40.314Z,13.03
2022-09-20T07:11:40.206Z,13.20
2022-09-20T07:12:40.182Z,13.17
2022-09-20T07:13:40.274Z,13.22
2022-09-20T07:14:40.172Z,13.36
2022-09-20T07:15:40.163Z,13.41
2022-09-20T07:16:40.283Z,13.58
2022-09-20T07:17:40.247Z,13.55
2022-09-20T07:18:40.155Z,13.56
2022-09-20T07:19:40.135Z,13.62
2022-09-20T07:20:40.126Z,13.83
2022-09-20T07:21:40.126Z,13.98
2022-09-20T07:22:40.149Z,13.59
2022-09-20T07:23:40.118Z,13.65
2022-09-20T07:24:40.111Z,13.51
2022-09-20T07:25:40.090Z,13.49
2022-09-20T07:26:40.078Z,13.55
2022-09-20T07:27:40.107Z,13.87
2022-09-20T07:28:40.070Z,13.84
2022-09-20T07:29:40.098Z,13.62
2022-09-20T07:30:40.083Z,13.56
2022-09-20T07:31:40.094Z,13.58
2022-09-20T07:32:40.060Z,13.38
2022-09-20T07:33:40.066Z,13.06
2022-09-20T07:34:40.035Z,12.93
2022-09-20T07:35:40.027Z,12.92
2022-09-20T07:36:40.030Z,12.77
2022-09-20T07:37:40.027Z,12.82
2022-09-20T07:38:40.018Z,12.84
2022-09-20T07:39:40.050Z,12.84
2022-09-20T07:40:40.042Z,13.04
2022-09-20T07:41:39.982Z,13.07
2022-09-20T07:42:39.993Z,13.18
2022-09-20T07:43:39.991Z,13.14
2022-09-20T07:44:39.963Z,13.29
2022-09-20T07:45:39.973Z,13.27
2022-09-20T07:46:39.946Z,13.38
2022-09-20T07:47:39.942Z,13.40
2022-09-20T07:48:39.974Z,13.51
2022-09-20T07:49:39.954Z,13.55
2022-09-20T07:50:39.918Z,13.56
2022-09-20T07:51:39.916Z,13.56
2022-09-20T07:52:39.934Z,13.65
2022-09-20T07:53:39.914Z,13.81
2022-09-20T07:54:39.884Z,13.96
2022-09-20T07:55:39.891Z,13.99
2022-09-20T07:56:39.891Z,13.99
2022-09-20T07:57:39.871Z,13.58
2022-09-20T07:58:39.907Z,13.59
2022-09-20T07:59:39.850Z,13.83
2022-09-20T08:00:39.852Z,14.17
2022-09-20T08:01:39.952Z,14.19
2022-09-20T08:02:39.887Z,14.20
2022-09-20T08:04:06.299Z,14.38
2022-09-20T08:04:39.813Z,14.64
2022-09-20T08:05:39.827Z,14.91
2022-09-20T08:06:39.802Z,14.61
2022-09-20T08:07:39.858Z,14.56
2022-09-20T08:08:39.778Z,14.50
2022-09-20T08:09:39.788Z,14.47
2022-09-20T08:10:39.818Z,14.53
2022-09-20T08:11:39.815Z,15.08
2022-09-20T08:14:42.138Z,15.03
2022-09-20T08:15:39.778Z,15.02
2022-09-20T08:16:39.837Z,14.98
2022-09-20T08:17:39.739Z,14.80
2022-09-20T08:18:39.722Z,14.57
2022-09-20T08:19:39.734Z,14.42
2022-09-20T08:20:39.714Z,14.42
2022-09-20T08:21:39.706Z,14.35
2022-09-20T08:22:39.703Z,14.43
2022-09-20T08:23:39.695Z,14.54
2022-09-20T08:24:39.706Z,14.42
2022-09-20T08:25:39.723Z,14.31
2022-09-20T08:26:39.727Z,14.34
2022-09-20T08:27:39.658Z,14.32
2022-09-20T08:28:39.662Z,14.42
2022-09-20T08:29:39.686Z,14.44
2022-09-20T08:30:39.642Z,14.37
2022-09-20T08:31:39.769Z,14.14
2022-09-20T08:32:39.629Z,13.91
2022-09-20T08:33:39.619Z,14.09
2022-09-20T08:34:39.677Z,14.17
2022-09-20T08:35:39.610Z,14.25
2022-09-20T08:36:39.670Z,14.32
2022-09-20T08:37:40.250Z,14.17
2022-09-20T08:39:59.026Z,14.19
2022-09-20T08:40:41.776Z,14.09
2022-09-20T08:41:39.666Z,14.13
2022-09-20T08:42:44.418Z,14.20
2022-09-20T08:43:45.677Z,14.14
2022-09-20T08:44:45.280Z,14.16
2022-09-20T08:45:40.787Z,14.37
2022-09-20T08:46:39.551Z,14.49
2022-09-20T08:47:39.620Z,14.71
2022-09-20T08:48:39.795Z,14.46
2022-09-20T08:49:40.518Z,14.61
2022-09-20T08:50:40.443Z,14.44
2022-09-20T08:51:40.559Z,14.52
2022-09-20T08:52:40.969Z,14.37
2022-09-20T08:53:39.502Z,14.44
2022-09-20T08:54:39.518Z,14.65
2022-09-20T08:55:39.524Z,14.62
2022-09-20T08:56:39.620Z,14.78
2022-09-20T08:57:39.483Z,14.49
2022-09-20T08:58:39.494Z,14.80
2022-09-20T08:59:39.455Z,15.81
2022-09-20T09:00:39.467Z,17.57
2022-09-20T09:01:39.438Z,19.79
2022-09-20T09:02:39.520Z,20.06
2022-09-20T09:03:39.438Z,19.54
2022-09-20T09:04:39.463Z,19.72
2022-09-20T09:05:39.419Z,19.43
2022-09-20T09:06:39.427Z,20.08
2022-09-20T09:07:39.413Z,20.72
2022-09-20T09:08:39.424Z,20.51
2022-09-20T09:09:39.427Z,20.79
2022-09-20T09:10:42.832Z,19.54
2022-09-20T09:11:45.844Z,18.77
2022-09-20T09:12:40.387Z,18.24
2022-09-20T09:13:39.374Z,18.19
2022-09-20T09:14:39.357Z,18.90
2022-09-20T09:15:39.359Z,20.05
2022-09-20T09:16:39.397Z,21.51
2022-09-20T09:17:39.338Z,21.13
2022-09-20T09:18:39.372Z,21.92
2022-09-20T09:19:39.322Z,22.25
2022-09-20T09:20:39.310Z,22.74
2022-09-20T09:21:39.399Z,24.19
2022-09-20T09:22:39.303Z,25.59
2022-09-20T09:23:39.791Z,23.50
2022-09-20T09:24:39.322Z,23.75
2022-09-20T09:25:39.302Z,22.93
2022-09-20T09:26:39.912Z,21.85
2022-09-20T09:27:39.267Z,23.05
2022-09-20T09:28:39.266Z,21.60
2022-09-20T09:29:39.266Z,20.50
2022-09-20T09:30:39.265Z,19.29
2022-09-20T09:31:39.257Z,18.72
2022-09-20T09:32:39.239Z,18.49
2022-09-20T09:33:39.234Z,18.52
2022-09-20T09:34:39.246Z,19.57
2022-09-20T09:35:39.219Z,19.21
2022-09-20T09:36:39.218Z,20.86
2022-09-20T09:37:39.222Z,22.29
2022-09-20T09:38:39.206Z,21.38
2022-09-20T09:39:39.198Z,20.43
2022-09-20T09:40:39.238Z,18.86
2022-09-20T09:41:39.182Z,18.43
2022-09-20T09:42:39.170Z,18.03
2022-09-20T09:43:39.170Z,17.47
2022-09-20T09:44:39.229Z,17.38
2022-09-20T09:45:39.344Z,17.23
2022-09-20T09:46:39.138Z,17.26
2022-09-20T09:47:39.142Z,17.14
2022-09-20T09:48:40.222Z,17.08
2022-09-20T09:49:40.169Z,16.77
2022-09-20T09:50:39.168Z,16.92
2022-09-20T09:51:39.144Z,16.95
2022-09-20T09:52:39.115Z,16.38
2022-09-20T09:53:39.148Z,15.66
2022-09-20T09:54:39.108Z,15.82
2022-09-20T09:55:39.115Z,15.89
2022-09-20T09:56:39.105Z,16.14
2022-09-20T09:57:39.131Z,16.26
2022-09-20T09:58:39.080Z,16.27
2022-09-20T09:59:39.083Z,16.15
2022-09-20T10:00:39.083Z,16.35
2022-09-20T10:01:39.091Z,16.48
2022-09-20T10:02:39.115Z,16.35
2022-09-20T10:03:39.082Z,16.14
2022-09-20T10:04:39.041Z,15.92
2022-09-20T10:05:39.040Z,16.30
2022-09-20T10:06:39.055Z,16.49
2022-09-20T10:07:39.016Z,16.74
2022-09-20T10:08:39.026Z,17.22
2022-09-20T10:09:39.016Z,18.72
2022-09-20T10:10:39.026Z,20.51
2022-09-20T10:11:38.999Z,22.01
2022-09-20T10:12:38.970Z,23.08
2022-09-20T10:13:40.810Z,23.27
2022-09-20T10:14:40.000Z,23.71
2022-09-20T10:15:38.955Z,25.52
2022-09-20T10:16:39.026Z,27.32
2022-09-20T10:17:38.998Z,26.65
2022-09-20T10:18:38.922Z,23.64
2022-09-20T10:19:38.930Z,22.82
2022-09-20T10:20:38.955Z,22.27
2022-09-20T10:21:38.940Z,20.90
2022-09-20T10:22:38.940Z,20.30
2022-09-20T10:24:02.074Z,19.94
2022-09-20T10:24:40.903Z,19.88
2022-09-20T10:25:38.976Z,18.97
2022-09-20T10:26:38.904Z,18.65
2022-09-20T10:27:38.880Z,18.22
2022-09-20T10:28:38.940Z,18.12
2022-09-20T10:29:39.868Z,18.07
2022-09-20T10:30:38.918Z,17.76
2022-09-20T10:31:38.887Z,17.48
2022-09-20T10:32:39.855Z,17.51
2022-09-20T10:33:38.864Z,17.08
2022-09-20T10:34:38.861Z,17.22
2022-09-20T10:35:38.866Z,17.28
2022-09-20T10:36:38.901Z,17.57
2022-09-20T10:37:38.848Z,17.78
2022-09-20T10:38:38.928Z,18.00
2022-09-20T10:39:38.811Z,18.47
2022-09-20T10:40:38.901Z,18.43
2022-09-20T10:41:38.795Z,18.33
2022-09-20T10:42:38.785Z,17.59
2022-09-20T10:43:38.847Z,17.99
2022-09-20T10:44:38.768Z,18.37
2022-09-20T10:46:14.533Z,18.15
2022-09-20T10:46:40.867Z,18.31
2022-09-20T10:47:38.795Z,18.39
2022-09-20T10:48:38.748Z,18.47
2022-09-20T10:49:38.779Z,18.61
2022-09-20T10:50:38.739Z,18.79
2022-09-20T10:51:38.783Z,18.82
2022-09-20T10:52:38.836Z,18.77
2022-09-20T10:53:38.715Z,18.61
2022-09-20T10:54:38.711Z,18.58
2022-09-20T10:55:38.712Z,18.36
2022-09-20T10:56:38.752Z,18.04
2022-09-20T10:57:41.151Z,18.27
2022-09-20T10:58:38.685Z,19.75
2022-09-20T10:59:38.788Z,22.12
2022-09-20T11:00:40.041Z,24.45
2022-09-20T11:01:38.748Z,25.69
2022-09-20T11:02:38.734Z,23.77
2022-09-20T11:03:38.664Z,23.87
2022-09-20T11:04:38.676Z,25.39
2022-09-20T11:05:38.639Z,26.11
2022-09-20T11:06:38.653Z,26.92
2022-09-20T11:07:38.618Z,27.31
2022-09-20T11:08:38.828Z,27.79
2022-09-20T11:09:38.632Z,27.28
2022-09-20T11:10:38.629Z,27.54
2022-09-20T11:11:38.612Z,27.62
2022-09-20T11:12:38.581Z,28.46
2022-09-20T11:13:38.652Z,27.89
2022-09-20T11:14:38.593Z,26.99
2022-09-20T11:15:38.641Z,25.30
2022-09-20T11:16:38.656Z,23.47
2022-09-20T11:17:38.552Z,22.32
2022-09-20T11:18:38.549Z,21.48
2022-09-20T11:19:38.544Z,21.32
2022-09-20T11:20:38.551Z,20.72
2022-09-20T11:21:38.536Z,20.06
2022-09-20T11:22:38.520Z,19.69
2022-09-20T11:23:38.568Z,18.91
2022-09-20T11:24:38.518Z,18.72
2022-09-20T11:25:38.549Z,18.55
2022-09-20T11:26:38.505Z,18.80
2022-09-20T11:27:38.529Z,18.86
2022-09-20T11:28:38.484Z,18.98
2022-09-20T11:29:38.488Z,20.28
2022-09-20T11:30:38.493Z,20.59
2022-09-20T11:31:38.575Z,20.74
2022-09-20T11:32:38.504Z,21.67
2022-09-20T11:33:41.455Z,22.28
2022-09-20T11:34:39.452Z,22.89
2022-09-20T11:35:38.643Z,22.99
2022-09-20T11:36:39.368Z,22.71
2022-09-20T11:37:38.424Z,22.34
2022-09-20T11:38:38.444Z,22.09
2022-09-20T11:39:38.404Z,21.56
2022-09-20T11:40:38.485Z,21.48
2022-09-20T11:41:38.539Z,20.91
2022-09-20T11:42:38.392Z,20.39
2022-09-20T11:43:38.382Z,20.21
2022-09-20T11:44:38.448Z,19.98
2022-09-20T11:45:38.397Z,19.94
2022-09-20T11:46:38.351Z,19.70
2022-09-20T11:47:53.850Z,19.47
2022-09-20T11:48:40.352Z,19.21
2022-09-20T11:49:38.348Z,19.13
2022-09-20T11:50:38.444Z,18.94
2022-09-20T11:51:38.468Z,18.77
2022-09-20T11:52:38.340Z,18.58
2022-09-20T11:53:38.347Z,18.24
2022-09-20T11:54:38.351Z,18.10
2022-09-20T11:55:38.335Z,18.07
2022-09-20T11:56:38.356Z,18.21
2022-09-20T11:57:38.293Z,18.02
2022-09-20T11:58:38.332Z,18.06
2022-09-20T11:59:38.276Z,18.29
2022-09-20T12:00:38.296Z,18.10
2022-09-20T12:01:38.320Z,18.28
2022-09-20T12:02:38.419Z,18.76
2022-09-20T12:03:38.321Z,19.97
2022-09-20T12:04:38.625Z,21.98
2022-09-20T12:05:38.322Z,22.75
2022-09-20T12:06:38.248Z,24.00
2022-09-20T12:07:38.696Z,25.42
2022-09-20T12:08:38.223Z,25.83
2022-09-20T12:09:38.215Z,26.40
2022-09-20T12:10:38.272Z,25.01
2022-09-20T12:11:38.213Z,24.52
2022-09-20T12:12:38.216Z,23.76
2022-09-20T12:13:38.229Z,24.91
2022-09-20T12:14:38.805Z,25.28
2022-09-20T12:15:38.199Z,24.59
2022-09-20T12:16:38.271Z,23.65
2022-09-20T12:17:38.159Z,23.15
2022-09-20T12:18:38.235Z,22.17
2022-09-20T12:19:38.161Z,21.83
2022-09-20T12:20:38.178Z,23.46
2022-09-20T12:21:38.164Z,23.82
2022-09-20T12:22:38.138Z,24.64
2022-09-20T12:23:38.146Z,24.20
2022-09-20T12:24:41.980Z,23.19
2022-09-20T12:25:39.155Z,21.85
2022-09-20T12:26:38.184Z,21.63
2022-09-20T12:27:38.115Z,21.66
2022-09-20T12:28:38.097Z,21.41
2022-09-20T12:29:38.355Z,20.89
2022-09-20T12:30:38.090Z,20.58
2022-09-20T12:31:38.132Z,20.31
2022-09-20T12:32:38.064Z,20.38
2022-09-20T12:33:38.070Z,20.50
2022-09-20T12:34:38.054Z,20.61
2022-09-20T12:35:38.051Z,20.81
2022-09-20T12:36:38.058Z,21.01
2022-09-20T12:37:38.098Z,20.79
2022-09-20T12:38:38.025Z,20.47
2022-09-20T12:39:38.027Z,20.43
2022-09-20T12:40:38.131Z,20.61
2022-09-20T12:41:38.059Z,20.47
2022-09-20T12:42:38.035Z,19.98
2022-09-20T12:43:38.018Z,19.79
2022-09-20T12:44:37.987Z,19.90
2022-09-20T12:45:38.002Z,20.00
2022-09-20T12:46:38.137Z,20.02
2022-09-20T12:47:37.983Z,20.06
2022-09-20T12:48:37.956Z,20.00
2022-09-20T12:49:37.995Z,20.25
2022-09-20T12:50:37.952Z,20.03
2022-09-20T12:51:37.975Z,19.80
2022-09-20T12:52:37.951Z,19.55
2022-09-20T12:53:37.947Z,19.73
2022-09-20T12:54:37.929Z,20.20
2022-09-20T12:55:37.914Z,21.29